createdAt,value
2023-03-27T00:00:54.920Z,997.24
2023-03-27T00:01:54.734Z,997.31
2023-03-27T00:02:54.725Z,997.33
2023-03-27T00:03:54.715Z,997.35
2023-03-27T00:04:54.760Z,997.34
2023-03-27T00:05:54.636Z,997.38
2023-03-27T00:06:54.630Z,997.42
2023-03-27T00:07:54.616Z,997.44
2023-03-27T00:08:54.612Z,997.35
2023-03-27T00:09:54.597Z,997.44
2023-03-27T00:10:54.710Z,997.43
2023-03-27T00:11:54.572Z,997.47
2023-03-27T00:12:54.558Z,997.50
2023-03-27T00:13:54.792Z,997.55
2023-03-27T00:14:54.543Z,997.57
2023-03-27T00:15:54.528Z,997.58
2023-03-27T00:16:54.574Z,997.63
2023-03-27T00:17:54.576Z,997.62
2023-03-27T00:18:54.518Z,997.61
2023-03-27T00:19:54.479Z,997.65
2023-03-27T00:20:54.615Z,997.62
2023-03-27T00:21:54.454Z,997.69
2023-03-27T00:22:54.442Z,997.74
2023-03-27T00:23:54.473Z,997.74
2023-03-27T00:24:54.420Z,997.80
2023-03-27T00:25:54.406Z,997.81
2023-03-27T00:26:54.400Z,997.85
2023-03-27T00:27:54.382Z,997.88
2023-03-27T00:28:54.375Z,997.89
2023-03-27T00:29:54.365Z,997.90
2023-03-27T00:30:54.561Z,997.88
2023-03-27T00:31:54.341Z,997.96
2023-03-27T00:32:54.392Z,997.90
2023-03-27T00:33:54.318Z,997.96
2023-03-27T00:34:54.300Z,997.92
2023-03-27T00:35:54.346Z,997.97
2023-03-27T00:36:54.281Z,997.95
2023-03-27T00:37:54.270Z,998.03
2023-03-27T00:38:54.259Z,998.04
2023-03-27T00:39:54.244Z,998.05
2023-03-27T00:40:54.699Z,998.07
2023-03-27T00:41:54.222Z,998.09
2023-03-27T00:42:54.209Z,998.09
2023-03-27T00:43:54.229Z,998.11
2023-03-27T00:44:54.186Z,998.18
2023-03-27T00:45:54.186Z,998.18
2023-03-27T00:46:54.163Z,998.19
2023-03-27T00:47:54.221Z,998.25
2023-03-27T00:48:54.139Z,998.26
2023-03-27T00:49:54.137Z,998.21
2023-03-27T00:50:54.160Z,998.38
2023-03-27T00:51:54.105Z,998.39
2023-03-27T00:52:54.093Z,998.41
2023-03-27T00:53:54.080Z,998.40
2023-03-27T00:54:54.061Z,998.42
2023-03-27T00:55:54.054Z,998.42
2023-03-27T00:56:54.085Z,998.50
2023-03-27T00:57:54.043Z,998.47
2023-03-27T00:58:54.022Z,998.55
2023-03-27T00:59:54.010Z,998.53
2023-03-27T01:00:54.151Z,998.56
2023-03-27T01:01:54.018Z,998.67
2023-03-27T01:02:54.070Z,998.62
2023-03-27T01:03:54.090Z,998.73
2023-03-27T01:04:53.949Z,998.73
2023-03-27T01:05:53.928Z,998.78
2023-03-27T01:06:53.923Z,998.78
2023-03-27T01:08:01.568Z,998.81
2023-03-27T01:08:53.899Z,998.86
2023-03-27T01:09:53.889Z,998.92
2023-03-27T01:10:53.923Z,998.90
2023-03-27T01:11:53.862Z,998.92
2023-03-27T01:12:53.844Z,998.96
2023-03-27T01:13:53.833Z,998.98
2023-03-27T01:14:53.833Z,999.01
2023-03-27T01:15:53.850Z,999.02
2023-03-27T01:16:53.801Z,998.97
2023-03-27T01:17:53.893Z,998.99
2023-03-27T01:18:53.808Z,999.03
2023-03-27T01:19:53.761Z,999.00
2023-03-27T01:20:53.908Z,999.05
2023-03-27T01:21:53.738Z,999.05
2023-03-27T01:22:53.723Z,999.10
2023-03-27T01:24:00.518Z,999.08
2023-03-27T01:24:53.706Z,999.16
2023-03-27T01:25:53.697Z,999.16
2023-03-27T01:26:53.679Z,999.16
2023-03-27T01:27:53.661Z,999.22
2023-03-27T01:28:53.659Z,999.25
2023-03-27T01:29:53.640Z,999.25
2023-03-27T01:30:53.692Z,999.28
2023-03-27T01:31:53.705Z,999.30
2023-03-27T01:32:53.702Z,999.34
2023-03-27T01:33:53.615Z,999.42
2023-03-27T01:35:01.280Z,999.48
2023-03-27T01:35:53.663Z,999.62
2023-03-27T01:36:53.558Z,999.58
2023-03-27T01:37:53.544Z,999.58
2023-03-27T01:38:53.534Z,999.61
2023-03-27T01:39:53.541Z,999.65
2023-03-27T01:40:53.590Z,999.70
2023-03-27T01:41:53.500Z,999.69
2023-03-27T01:42:53.483Z,999.71
2023-03-27T01:43:53.473Z,999.75
2023-03-27T01:44:53.469Z,999.72
2023-03-27T01:45:53.443Z,999.71
2023-03-27T01:46:53.504Z,999.79
2023-03-27T01:47:53.443Z,999.78
2023-03-27T01:48:53.418Z,999.81
2023-03-27T01:49:53.409Z,999.84
2023-03-27T01:50:53.394Z,999.86
2023-03-27T01:51:53.378Z,999.90
2023-03-27T01:52:53.383Z,999.99
2023-03-27T01:53:53.350Z,999.99
2023-03-27T01:54:53.345Z,1000.01
2023-03-27T01:55:53.324Z,1000.05
2023-03-27T01:56:53.535Z,1000.05
2023-03-27T01:57:53.306Z,1000.08
2023-03-27T01:58:53.290Z,1000.09
2023-03-27T01:59:53.294Z,1000.14
2023-03-27T02:00:53.666Z,1000.11
2023-03-27T02:01:53.257Z,1000.12
2023-03-27T02:02:53.301Z,1000.16
2023-03-27T02:03:53.230Z,1000.18
2023-03-27T02:04:53.258Z,1000.19
2023-03-27T02:05:53.206Z,1000.15
2023-03-27T02:06:53.195Z,1000.20
2023-03-27T02:07:53.178Z,1000.24
2023-03-27T02:08:53.168Z,1000.31
2023-03-27T02:09:53.157Z,1000.29
2023-03-27T02:10:53.142Z,1000.28
2023-03-27T02:11:53.141Z,1000.32
2023-03-27T02:12:53.117Z,1000.23
2023-03-27T02:13:53.108Z,1000.32
2023-03-27T02:14:53.095Z,1000.29
2023-03-27T02:15:53.103Z,1000.30
2023-03-27T02:16:53.075Z,1000.30
2023-03-27T02:17:53.088Z,1000.33
2023-03-27T02:18:53.047Z,1000.34
2023-03-27T02:19:53.060Z,1000.36
2023-03-27T02:20:53.016Z,1000.39
2023-03-27T02:21:53.011Z,1000.42
2023-03-27T02:22:53.002Z,1000.44
2023-03-27T02:23:53.001Z,1000.48
2023-03-27T02:24:52.975Z,1000.43
2023-03-27T02:25:52.956Z,1000.49
2023-03-27T02:26:52.952Z,1000.45
2023-03-27T02:27:52.936Z,1000.53
2023-03-27T02:28:52.925Z,1000.45
2023-03-27T02:29:52.913Z,1000.47
2023-03-27T02:31:06.715Z,1000.56
2023-03-27T02:31:52.933Z,1000.51
2023-03-27T02:32:52.902Z,1000.51
2023-03-27T02:33:52.857Z,1000.53
2023-03-27T02:34:52.846Z,1000.54
2023-03-27T02:35:52.860Z,1000.62
2023-03-27T02:36:52.821Z,1000.62
2023-03-27T02:37:52.817Z,1000.65
2023-03-27T02:38:52.797Z,1000.73
2023-03-27T02:39:52.786Z,1000.78
2023-03-27T02:40:52.770Z,1000.71
2023-03-27T02:41:52.761Z,1000.79
2023-03-27T02:42:52.749Z,1000.83
2023-03-27T02:43:52.731Z,1000.80
2023-03-27T02:44:52.727Z,1000.83
2023-03-27T02:45:52.745Z,1000.84
2023-03-27T02:46:52.700Z,1000.83
2023-03-27T02:47:52.761Z,1000.85
2023-03-27T02:48:52.701Z,1000.84
2023-03-27T02:49:52.663Z,1000.81
2023-03-27T02:50:52.648Z,1000.85
2023-03-27T02:51:52.635Z,1000.88
2023-03-27T02:52:52.620Z,1000.89
2023-03-27T02:53:52.612Z,1000.89
2023-03-27T02:54:52.598Z,1000.93
2023-03-27T02:55:52.590Z,1001.04
2023-03-27T02:56:52.598Z,1001.04
2023-03-27T02:57:52.842Z,1001.03
2023-03-27T02:58:52.569Z,1001.03
2023-03-27T02:59:52.572Z,1001.02
2023-03-27T03:00:52.538Z,1001.08
2023-03-27T03:01:52.510Z,1001.07
2023-03-27T03:02:52.551Z,1001.06
2023-03-27T03:03:52.486Z,1001.11
2023-03-27T03:04:53.479Z,1001.09
2023-03-27T03:05:52.458Z,1001.08
2023-03-27T03:06:52.454Z,1001.17
2023-03-27T03:07:52.435Z,1001.15
2023-03-27T03:08:52.430Z,1001.17
2023-03-27T03:09:52.410Z,1001.21
2023-03-27T03:10:52.397Z,1001.22
2023-03-27T03:11:52.405Z,1001.24
2023-03-27T03:12:52.372Z,1001.27
2023-03-27T03:13:52.365Z,1001.31
2023-03-27T03:14:52.347Z,1001.36
2023-03-27T03:15:52.393Z,1001.42
2023-03-27T03:16:52.361Z,1001.43
2023-03-27T03:17:52.324Z,1001.43
2023-03-27T03:18:52.299Z,1001.39
2023-03-27T03:19:52.289Z,1001.46
2023-03-27T03:20:52.269Z,1001.49
2023-03-27T03:21:52.260Z,1001.49
2023-03-27T03:22:52.243Z,1001.53
2023-03-27T03:23:58.009Z,1001.54
2023-03-27T03:24:52.221Z,1001.66
2023-03-27T03:25:52.211Z,1001.69
2023-03-27T03:26:52.209Z,1001.75
2023-03-27T03:27:52.178Z,1001.71
2023-03-27T03:29:00.498Z,1001.72
2023-03-27T03:29:52.163Z,1001.77
2023-03-27T03:30:52.168Z,1001.77
2023-03-27T03:31:52.134Z,1001.77
2023-03-27T03:32:52.148Z,1001.81
2023-03-27T03:33:52.110Z,1001.82
2023-03-27T03:34:52.096Z,1001.81
2023-03-27T03:35:52.126Z,1001.84
2023-03-27T03:36:52.068Z,1001.83
2023-03-27T03:37:52.058Z,1001.87
2023-03-27T03:38:52.048Z,1001.87
2023-03-27T03:39:52.061Z,1001.87
2023-03-27T03:40:52.013Z,1001.93
2023-03-27T03:41:52.006Z,1001.94
2023-03-27T03:42:51.987Z,1001.93
2023-03-27T03:43:51.978Z,1001.94
2023-03-27T03:44:51.983Z,1001.95
2023-03-27T03:45:51.984Z,1002.02
2023-03-27T03:46:51.938Z,1002.02
2023-03-27T03:47:52.025Z,1002.01
2023-03-27T03:48:51.919Z,1002.05
2023-03-27T03:49:51.903Z,1002.07
2023-03-27T03:50:51.895Z,1002.10
2023-03-27T03:52:03.470Z,1002.14
2023-03-27T03:52:51.860Z,1002.22
2023-03-27T03:53:51.854Z,1002.26
2023-03-27T03:54:51.842Z,1002.29
2023-03-27T03:55:51.826Z,1002.33
2023-03-27T03:56:51.833Z,1002.34
2023-03-27T03:57:51.798Z,1002.37
2023-03-27T03:58:51.789Z,1002.41
2023-03-27T03:59:51.774Z,1002.44
2023-03-27T04:00:51.761Z,1002.46
2023-03-27T04:01:51.807Z,1002.48
2023-03-27T04:02:51.795Z,1002.49
2023-03-27T04:03:51.772Z,1002.54
2023-03-27T04:04:51.704Z,1002.60
2023-03-27T04:05:51.691Z,1002.60
2023-03-27T04:06:51.680Z,1002.65
2023-03-27T04:07:51.665Z,1002.69
2023-03-27T04:08:51.656Z,1002.73
2023-03-27T04:09:51.645Z,1002.80
2023-03-27T04:10:51.625Z,1002.84
2023-03-27T04:11:51.619Z,1002.89
2023-03-27T04:12:51.598Z,1002.91
2023-03-27T04:13:51.591Z,1002.96
2023-03-27T04:14:51.579Z,1002.93
2023-03-27T04:15:51.587Z,1002.99
2023-03-27T04:16:51.551Z,1002.97
2023-03-27T04:17:51.611Z,1003.03
2023-03-27T04:18:51.577Z,1003.00
2023-03-27T04:19:51.539Z,1003.01
2023-03-27T04:20:51.494Z,1003.09
2023-03-27T04:21:51.484Z,1003.08
2023-03-27T04:22:53.864Z,1003.12
2023-03-27T04:23:51.463Z,1003.16
2023-03-27T04:24:51.455Z,1003.11
2023-03-27T04:25:51.444Z,1003.16
2023-03-27T04:26:51.425Z,1003.16
2023-03-27T04:27:51.406Z,1003.16
2023-03-27T04:28:51.400Z,1003.17
2023-03-27T04:29:51.397Z,1003.23
2023-03-27T04:30:51.373Z,1003.24
2023-03-27T04:31:51.429Z,1003.23
2023-03-27T04:32:51.365Z,1003.29
2023-03-27T04:33:51.342Z,1003.34
2023-03-27T04:34:51.327Z,1003.42
2023-03-27T04:36:06.238Z,1003.41
2023-03-27T04:36:51.297Z,1003.42
2023-03-27T04:37:51.284Z,1003.40
2023-03-27T04:38:51.273Z,1003.42
2023-03-27T04:39:51.265Z,1003.44
2023-03-27T04:40:51.247Z,1003.42
2023-03-27T04:41:51.240Z,1003.47
2023-03-27T04:42:51.221Z,1003.48
2023-03-27T04:43:51.213Z,1003.51
2023-03-27T04:44:51.203Z,1003.54
2023-03-27T04:45:51.185Z,1003.57
2023-03-27T04:46:51.196Z,1003.60
2023-03-27T04:47:51.206Z,1003.63
2023-03-27T04:48:51.145Z,1003.67
2023-03-27T04:49:51.183Z,1003.70
2023-03-27T04:50:51.164Z,1003.76
2023-03-27T04:51:51.109Z,1003.77
2023-03-27T04:52:51.096Z,1003.81
2023-03-27T04:53:51.084Z,1003.76
2023-03-27T04:54:51.071Z,1003.83
2023-03-27T04:55:51.201Z,1003.87
2023-03-27T04:56:51.079Z,1003.87
2023-03-27T04:57:51.037Z,1003.91
2023-03-27T04:58:51.022Z,1003.89
2023-03-27T04:59:51.018Z,1003.94
2023-03-27T05:00:51.022Z,1004.00
2023-03-27T05:01:50.980Z,1004.02
2023-03-27T05:02:50.985Z,1004.07
2023-03-27T05:03:50.983Z,1004.07
2023-03-27T05:04:50.937Z,1004.07
2023-03-27T05:05:50.931Z,1004.05
2023-03-27T05:06:50.922Z,1003.99
2023-03-27T05:07:50.896Z,1004.08
2023-03-27T05:08:50.891Z,1004.08
2023-03-27T05:09:50.873Z,1004.13
2023-03-27T05:10:50.862Z,1004.12
2023-03-27T05:11:50.856Z,1004.17
2023-03-27T05:12:50.828Z,1004.19
2023-03-27T05:13:50.824Z,1004.23
2023-03-27T05:14:50.816Z,1004.22
2023-03-27T05:15:50.798Z,1004.22
2023-03-27T05:16:50.858Z,1004.24
2023-03-27T05:17:50.777Z,1004.25
2023-03-27T05:18:50.755Z,1004.27
2023-03-27T05:19:50.746Z,1004.31
2023-03-27T05:20:50.729Z,1004.38
2023-03-27T05:21:50.729Z,1004.41
2023-03-27T05:22:50.700Z,1004.42
2023-03-27T05:23:50.697Z,1004.46
2023-03-27T05:24:50.676Z,1004.51
2023-03-27T05:26:00.108Z,1004.50
2023-03-27T05:26:50.650Z,1004.58
2023-03-27T05:27:50.640Z,1004.53
2023-03-27T05:28:50.629Z,1004.56
2023-03-27T05:29:50.614Z,1004.58
2023-03-27T05:30:50.605Z,1004.57
2023-03-27T05:31:50.587Z,1004.57
2023-03-27T05:32:50.600Z,1004.59
2023-03-27T05:33:50.561Z,1004.67
2023-03-27T05:34:50.569Z,1004.68
2023-03-27T05:35:50.556Z,1004.69
2023-03-27T05:36:50.521Z,1004.72
2023-03-27T05:37:50.509Z,1004.76
2023-03-27T05:38:50.509Z,1004.80
2023-03-27T05:39:50.487Z,1004.81
2023-03-27T05:40:50.462Z,1004.82
2023-03-27T05:41:50.457Z,1004.82
2023-03-27T05:42:50.462Z,1004.84
2023-03-27T05:43:51.352Z,1004.88
2023-03-27T05:44:50.420Z,1004.92
2023-03-27T05:45:50.440Z,1004.93
2023-03-27T05:46:50.390Z,1004.93
2023-03-27T05:47:50.443Z,1005.01
2023-03-27T05:48:50.368Z,1004.98
2023-03-27T05:49:50.356Z,1004.96
2023-03-27T05:50:50.337Z,1004.98
2023-03-27T05:51:50.329Z,1005.01
2023-03-27T05:52:50.311Z,1005.05
2023-03-27T05:53:50.301Z,1005.06
2023-03-27T05:54:50.290Z,1005.09
2023-03-27T05:55:50.276Z,1005.14
2023-03-27T05:56:50.318Z,1005.16
2023-03-27T05:57:50.250Z,1005.20
2023-03-27T05:58:50.240Z,1005.23
2023-03-27T05:59:50.227Z,1005.22
2023-03-27T06:00:50.212Z,1005.24
2023-03-27T06:01:50.212Z,1005.32
2023-03-27T06:02:50.326Z,1005.31
2023-03-27T06:03:50.300Z,1005.34
2023-03-27T06:04:50.162Z,1005.35
2023-03-27T06:05:50.150Z,1005.39
2023-03-27T06:06:50.140Z,1005.37
2023-03-27T06:07:50.130Z,1005.41
2023-03-27T06:08:50.112Z,1005.46
2023-03-27T06:09:50.101Z,1005.46
2023-03-27T06:10:50.081Z,1005.55
2023-03-27T06:11:50.073Z,1005.57
2023-03-27T06:12:50.055Z,1005.65
2023-03-27T06:13:50.052Z,1005.64
2023-03-27T06:14:50.039Z,1005.68
2023-03-27T06:15:50.065Z,1005.72
2023-03-27T06:16:50.016Z,1005.65
2023-03-27T06:17:50.013Z,1005.73
2023-03-27T06:18:49.982Z,1005.71
2023-03-27T06:19:49.973Z,1005.73
2023-03-27T06:20:49.960Z,1005.81
2023-03-27T06:21:49.943Z,1005.81
2023-03-27T06:22:49.929Z,1005.86
2023-03-27T06:23:49.920Z,1005.83
2023-03-27T06:24:49.904Z,1005.88
2023-03-27T06:25:49.886Z,1005.85
2023-03-27T06:26:49.879Z,1005.91
2023-03-27T06:27:49.862Z,1005.92
2023-03-27T06:28:49.858Z,1005.92
2023-03-27T06:29:49.848Z,1005.98
2023-03-27T06:30:49.920Z,1005.98
2023-03-27T06:31:49.821Z,1005.96
2023-03-27T06:32:49.831Z,1006.05
2023-03-27T06:33:49.788Z,1006.05
2023-03-27T06:34:49.784Z,1006.07
2023-03-27T06:35:53.074Z,1006.12
2023-03-27T06:36:49.754Z,1006.12
2023-03-27T06:37:50.911Z,1006.15
2023-03-27T06:38:49.736Z,1006.17
2023-03-27T06:39:49.716Z,1006.25
2023-03-27T06:40:49.698Z,1006.23
2023-03-27T06:41:49.686Z,1006.25
2023-03-27T06:42:49.673Z,1006.25
2023-03-27T06:43:49.670Z,1006.24
2023-03-27T06:44:49.651Z,1006.24
2023-03-27T06:45:49.636Z,1006.30
2023-03-27T06:46:49.641Z,1006.27
2023-03-27T06:47:55.285Z,1006.29
2023-03-27T06:48:49.631Z,1006.33
2023-03-27T06:49:49.588Z,1006.34
2023-03-27T06:50:49.577Z,1006.35
2023-03-27T06:51:49.570Z,1006.39
2023-03-27T06:52:49.547Z,1006.38
2023-03-27T06:53:49.536Z,1006.39
2023-03-27T06:54:49.526Z,1006.42
2023-03-27T06:55:49.533Z,1006.43
2023-03-27T06:56:49.514Z,1006.46
2023-03-27T06:57:49.485Z,1006.52
2023-03-27T06:58:49.472Z,1006.55
2023-03-27T06:59:49.460Z,1006.56
2023-03-27T07:00:49.794Z,1006.55
2023-03-27T07:01:49.474Z,1006.57
2023-03-27T07:02:49.454Z,1006.61
2023-03-27T07:03:49.413Z,1006.64
2023-03-27T07:05:01.605Z,1006.61
2023-03-27T07:05:49.454Z,1006.68
2023-03-27T07:06:49.371Z,1006.70
2023-03-27T07:07:49.471Z,1006.74
2023-03-27T07:08:49.340Z,1006.76
2023-03-27T07:09:49.329Z,1006.77
2023-03-27T07:10:59.721Z,1006.74
2023-03-27T07:11:49.304Z,1006.75
2023-03-27T07:12:49.284Z,1006.74
2023-03-27T07:13:49.276Z,1006.77
2023-03-27T07:14:49.267Z,1006.80
2023-03-27T07:15:49.312Z,1006.84
2023-03-27T07:16:49.270Z,1006.86
2023-03-27T07:17:49.534Z,1006.86
2023-03-27T07:18:49.225Z,1006.92
2023-03-27T07:19:49.204Z,1006.92
2023-03-27T07:20:49.336Z,1006.94
2023-03-27T07:21:49.174Z,1006.96
2023-03-27T07:22:49.166Z,1006.94
2023-03-27T07:23:49.152Z,1006.99
2023-03-27T07:24:49.132Z,1006.99
2023-03-27T07:25:49.119Z,1007.00
2023-03-27T07:26:49.115Z,1007.03
2023-03-27T07:27:49.100Z,1007.07
2023-03-27T07:28:49.081Z,1007.07
2023-03-27T07:29:49.073Z,1007.05
2023-03-27T07:30:49.052Z,1007.08
2023-03-27T07:31:56.621Z,1007.08
2023-03-27T07:32:49.086Z,1007.11
2023-03-27T07:33:49.101Z,1007.14
2023-03-27T07:34:49.016Z,1007.09
2023-03-27T07:35:49.016Z,1007.14
2023-03-27T07:36:48.982Z,1007.16
2023-03-27T07:37:48.968Z,1007.16
2023-03-27T07:38:48.957Z,1007.15
2023-03-27T07:39:48.948Z,1007.16
2023-03-27T07:40:48.931Z,1007.16
2023-03-27T07:41:48.916Z,1007.19
2023-03-27T07:42:48.902Z,1007.20
2023-03-27T07:43:48.892Z,1007.22
2023-03-27T07:44:48.882Z,1007.21
2023-03-27T07:45:48.903Z,1007.18
2023-03-27T07:46:48.855Z,1007.21
2023-03-27T07:47:48.974Z,1007.25
2023-03-27T07:48:48.831Z,1007.23
2023-03-27T07:49:48.819Z,1007.26
2023-03-27T07:50:48.827Z,1007.35
2023-03-27T07:51:48.791Z,1007.31
2023-03-27T07:52:48.781Z,1007.31
2023-03-27T07:53:48.777Z,1007.37
2023-03-27T07:54:48.763Z,1007.39
2023-03-27T07:55:48.755Z,1007.39
2023-03-27T07:56:48.880Z,1007.40
2023-03-27T07:57:59.937Z,1007.39
2023-03-27T07:58:48.709Z,1007.47
2023-03-27T07:59:48.698Z,1007.48
2023-03-27T08:00:48.682Z,1007.48
2023-03-27T08:01:48.673Z,1007.49
2023-03-27T08:02:48.729Z,1007.51
2023-03-27T08:03:48.956Z,1007.51
2023-03-27T08:04:48.695Z,1007.57
2023-03-27T08:05:48.615Z,1007.61
2023-03-27T08:06:48.612Z,1007.55
2023-03-27T08:07:48.591Z,1007.62
2023-03-27T08:08:48.584Z,1007.59
2023-03-27T08:09:48.572Z,1007.62
2023-03-27T08:10:48.553Z,1007.61
2023-03-27T08:11:48.542Z,1007.60
2023-03-27T08:12:48.529Z,1007.59
2023-03-27T08:13:48.520Z,1007.60
2023-03-27T08:14:48.505Z,1007.63
2023-03-27T08:15:48.500Z,1007.63
2023-03-27T08:16:48.527Z,1007.64
2023-03-27T08:17:49.103Z,1007.63
2023-03-27T08:18:48.519Z,1007.59
2023-03-27T08:19:48.443Z,1007.67
2023-03-27T08:20:48.436Z,1007.66
2023-03-27T08:21:48.416Z,1007.68
2023-03-27T08:22:48.404Z,1007.69
2023-03-27T08:23:48.399Z,1007.67
2023-03-27T08:24:48.375Z,1007.62
2023-03-27T08:25:48.362Z,1007.69
2023-03-27T08:26:48.355Z,1007.72
2023-03-27T08:27:48.356Z,1007.72
2023-03-27T08:28:48.328Z,1007.73
2023-03-27T08:29:48.314Z,1007.70
2023-03-27T08:30:48.319Z,1007.75
2023-03-27T08:31:48.291Z,1007.77
2023-03-27T08:32:48.311Z,1007.73
2023-03-27T08:33:48.266Z,1007.80
2023-03-27T08:34:48.258Z,1007.75
2023-03-27T08:35:48.246Z,1007.85
2023-03-27T08:36:48.228Z,1007.78
2023-03-27T08:37:48.219Z,1007.79
2023-03-27T08:38:48.203Z,1007.82
2023-03-27T08:39:48.187Z,1007.78
2023-03-27T08:40:48.220Z,1007.90
2023-03-27T08:41:48.157Z,1007.85
2023-03-27T08:42:48.156Z,1007.86
2023-03-27T08:43:48.141Z,1007.83
2023-03-27T08:44:48.127Z,1007.91
2023-03-27T08:45:48.112Z,1007.91
2023-03-27T08:46:48.155Z,1007.94
2023-03-27T08:47:48.130Z,1007.95
2023-03-27T08:48:48.078Z,1007.98
2023-03-27T08:49:48.069Z,1008.04
2023-03-27T08:50:48.067Z,1008.06
2023-03-27T08:51:48.127Z,1007.98
2023-03-27T08:52:48.032Z,1007.99
2023-03-27T08:53:48.023Z,1007.92
2023-03-27T08:54:48.002Z,1008.07
2023-03-27T08:55:47.994Z,1008.03
2023-03-27T08:56:47.999Z,1008.10
2023-03-27T08:57:47.989Z,1008.03
2023-03-27T08:58:47.961Z,1008.06
2023-03-27T08:59:47.942Z,1008.10
2023-03-27T09:00:47.938Z,1008.04
2023-03-27T09:01:47.974Z,1008.08
2023-03-27T09:02:47.963Z,1008.10
2023-03-27T09:03:48.062Z,1008.07
2023-03-27T09:04:47.881Z,1008.08
2023-03-27T09:05:47.880Z,1008.11
2023-03-27T09:06:47.858Z,1008.10
2023-03-27T09:07:47.874Z,1008.12
2023-03-27T09:08:47.836Z,1008.04
2023-03-27T09:09:47.824Z,1008.18
2023-03-27T09:10:47.820Z,1008.13
2023-03-27T09:11:47.798Z,1008.18
2023-03-27T09:12:47.785Z,1008.13
2023-03-27T09:13:47.776Z,1008.14
2023-03-27T09:14:47.767Z,1008.14
2023-03-27T09:15:47.764Z,1008.18
2023-03-27T09:16:47.785Z,1008.15
2023-03-27T09:17:47.739Z,1008.03
2023-03-27T09:18:47.717Z,1008.05
2023-03-27T09:19:47.700Z,1008.08
2023-03-27T09:20:47.697Z,1008.05
2023-03-27T09:21:47.681Z,1008.08
2023-03-27T09:22:48.450Z,1008.14
2023-03-27T09:23:47.655Z,1008.13
2023-03-27T09:24:47.638Z,1008.10
2023-03-27T09:25:47.626Z,1008.04
2023-03-27T09:26:52.692Z,1008.08
2023-03-27T09:27:47.605Z,1008.10
2023-03-27T09:28:49.022Z,1008.11
2023-03-27T09:29:47.581Z,1008.09
2023-03-27T09:30:47.577Z,1008.11
2023-03-27T09:31:47.756Z,1008.09
2023-03-27T09:32:47.586Z,1008.10
2023-03-27T09:33:47.542Z,1008.14
2023-03-27T09:34:47.527Z,1008.17
2023-03-27T09:35:47.573Z,1008.15
2023-03-27T09:36:47.509Z,1008.18
2023-03-27T09:37:47.488Z,1008.09
2023-03-27T09:38:47.476Z,1008.21
2023-03-27T09:39:47.462Z,1008.14
2023-03-27T09:40:47.453Z,1008.18
2023-03-27T09:41:47.438Z,1008.20
2023-03-27T09:42:47.427Z,1008.18
2023-03-27T09:43:47.416Z,1008.20
2023-03-27T09:44:47.404Z,1008.25
2023-03-27T09:45:47.393Z,1008.17
2023-03-27T09:46:47.433Z,1008.21
2023-03-27T09:47:47.376Z,1008.28
2023-03-27T09:48:47.375Z,1008.27
2023-03-27T09:49:47.342Z,1008.32
2023-03-27T09:50:47.584Z,1008.29
2023-03-27T09:51:47.325Z,1008.35
2023-03-27T09:52:47.309Z,1008.33
2023-03-27T09:53:47.301Z,1008.41
2023-03-27T09:54:47.287Z,1008.39
2023-03-27T09:55:47.276Z,1008.39
2023-03-27T09:56:47.316Z,1008.37
2023-03-27T09:57:47.251Z,1008.34
2023-03-27T09:58:47.248Z,1008.40
2023-03-27T09:59:47.229Z,1008.37
2023-03-27T10:00:47.275Z,1008.39
2023-03-27T10:01:47.210Z,1008.46
2023-03-27T10:02:47.222Z,1008.44
2023-03-27T10:03:47.262Z,1008.46
2023-03-27T10:04:47.176Z,1008.50
2023-03-27T10:05:47.162Z,1008.58
2023-03-27T10:06:47.158Z,1008.67
2023-03-27T10:07:47.142Z,1008.71
2023-03-27T10:08:47.135Z,1008.73
2023-03-27T10:09:47.117Z,1008.78
2023-03-27T10:10:47.107Z,1008.83
2023-03-27T10:11:47.154Z,1008.89
2023-03-27T10:12:47.090Z,1008.89
2023-03-27T10:13:47.079Z,1008.95
2023-03-27T10:14:47.062Z,1008.94
2023-03-27T10:15:47.050Z,1008.93
2023-03-27T10:16:47.088Z,1009.03
2023-03-27T10:17:47.053Z,1009.02
2023-03-27T10:18:47.038Z,1008.99
2023-03-27T10:19:47.011Z,1008.93
2023-03-27T10:20:46.997Z,1008.96
2023-03-27T10:21:46.980Z,1008.98
2023-03-27T10:22:46.969Z,1008.93
2023-03-27T10:23:47.000Z,1008.92
2023-03-27T10:24:46.971Z,1008.89
2023-03-27T10:25:46.934Z,1008.90
2023-03-27T10:26:46.922Z,1008.92
2023-03-27T10:27:46.907Z,1008.95
2023-03-27T10:28:46.894Z,1008.91
2023-03-27T10:29:46.890Z,1008.88
2023-03-27T10:30:46.870Z,1008.88
2023-03-27T10:31:46.887Z,1008.91
2023-03-27T10:32:46.902Z,1008.84
2023-03-27T10:33:46.835Z,1008.84
2023-03-27T10:34:46.843Z,1008.85
2023-03-27T10:35:46.834Z,1008.83
2023-03-27T10:36:46.806Z,1008.85
2023-03-27T10:37:50.087Z,1008.86
2023-03-27T10:38:46.773Z,1008.85
2023-03-27T10:39:46.770Z,1008.84
2023-03-27T10:40:46.752Z,1008.81
2023-03-27T10:41:46.736Z,1008.83
2023-03-27T10:42:46.722Z,1008.83
2023-03-27T10:43:46.713Z,1008.79
2023-03-27T10:44:46.725Z,1008.80
2023-03-27T10:45:46.707Z,1008.77
2023-03-27T10:46:46.680Z,1008.73
2023-03-27T10:47:46.711Z,1008.77
2023-03-27T10:48:46.655Z,1008.77
2023-03-27T10:49:46.637Z,1008.73
2023-03-27T10:50:46.620Z,1008.69
2023-03-27T10:51:47.106Z,1008.74
2023-03-27T10:52:46.614Z,1008.74
2023-03-27T10:53:46.738Z,1008.73
2023-03-27T10:54:46.581Z,1008.69
2023-03-27T10:55:46.566Z,1008.72
2023-03-27T10:56:46.609Z,1008.70
2023-03-27T10:57:46.542Z,1008.72
2023-03-27T10:58:46.533Z,1008.78
2023-03-27T10:59:46.525Z,1008.70
2023-03-27T11:00:46.509Z,1008.68
2023-03-27T11:01:46.570Z,1008.66
2023-03-27T11:02:46.531Z,1008.73
2023-03-27T11:03:46.498Z,1008.59
2023-03-27T11:04:46.460Z,1008.60
2023-03-27T11:05:46.445Z,1008.63
2023-03-27T11:06:46.438Z,1008.69
2023-03-27T11:07:46.420Z,1008.78
2023-03-27T11:08:46.410Z,1008.73
2023-03-27T11:09:46.393Z,1008.77
2023-03-27T11:10:46.381Z,1008.75
2023-03-27T11:11:46.377Z,1008.79
2023-03-27T11:12:46.359Z,1008.74
2023-03-27T11:13:46.360Z,1008.71
2023-03-27T11:14:46.335Z,1008.71
2023-03-27T11:15:46.322Z,1008.73
2023-03-27T11:16:46.405Z,1008.72
2023-03-27T11:17:46.318Z,1008.78
2023-03-27T11:18:46.289Z,1008.81
2023-03-27T11:19:46.276Z,1008.79
2023-03-27T11:20:46.262Z,1008.80
2023-03-27T11:21:46.250Z,1008.81
2023-03-27T11:22:46.238Z,1008.84
2023-03-27T11:23:46.230Z,1008.90
2023-03-27T11:24:46.215Z,1008.85
2023-03-27T11:25:46.203Z,1008.99
2023-03-27T11:26:46.198Z,1008.97
2023-03-27T11:27:46.181Z,1009.01
2023-03-27T11:28:46.176Z,1009.06
2023-03-27T11:29:46.157Z,1009.08
2023-03-27T11:30:46.182Z,1009.06
2023-03-27T11:31:46.392Z,1009.06
2023-03-27T11:32:46.183Z,1009.03
2023-03-27T11:33:46.113Z,1009.11
2023-03-27T11:34:46.104Z,1009.03
2023-03-27T11:35:46.122Z,1009.01
2023-03-27T11:36:46.090Z,1009.17
2023-03-27T11:37:46.068Z,1009.13
2023-03-27T11:38:46.065Z,1009.25
2023-03-27T11:39:46.053Z,1009.14
2023-03-27T11:40:46.098Z,1009.12
2023-03-27T11:41:46.029Z,1009.26
2023-03-27T11:42:46.017Z,1009.18
2023-03-27T11:43:46.016Z,1009.22
2023-03-27T11:44:45.997Z,1009.22
2023-03-27T11:45:45.996Z,1009.21
2023-03-27T11:46:46.003Z,1009.28
2023-03-27T11:47:46.000Z,1009.36
2023-03-27T11:48:45.953Z,1009.27
2023-03-27T11:49:45.944Z,1009.32
2023-03-27T11:50:45.929Z,1009.36
2023-03-27T11:51:45.919Z,1009.33
2023-03-27T11:52:45.904Z,1009.37
2023-03-27T11:53:45.897Z,1009.38
2023-03-27T11:54:45.880Z,1009.38
2023-03-27T11:55:45.871Z,1009.47
2023-03-27T11:56:45.880Z,1009.42
2023-03-27T11:57:45.845Z,1009.33
2023-03-27T11:58:45.839Z,1009.22
2023-03-27T11:59:45.824Z,1009.17
2023-03-27T12:00:45.814Z,1009.15
2023-03-27T12:01:45.834Z,1009.12
2023-03-27T12:02:45.950Z,1009.29
2023-03-27T12:03:45.937Z,1009.35
2023-03-27T12:04:45.758Z,1009.43
2023-03-27T12:05:45.753Z,1009.47
2023-03-27T12:06:45.743Z,1009.47
2023-03-27T12:07:47.822Z,1009.48
2023-03-27T12:08:46.200Z,1009.33
2023-03-27T12:09:45.702Z,1009.41